Rocky Mount, VA (24151)

5:28 AM EDT on August 28, 2015 (GMT -0400)
Doe Run | | Change Station
CLOSE
Current Station
Personal Weather Station
Location: Rocky Mount, VA
Elevation: 1099 ft
Nearby Weather Stations

Elev 1099 ft 36.97 °N, 79.85 °W | Updated 20 seconds ago

Mostly Cloudy
Mostly Cloudy
57.0 °F
Feels Like 57.0 °F
N
0.0
Wind Variable Wind from West
Gusts 0.0 mph

Today
High -- | Low -- °F
--% Chance of Precip.
Yesterday
High -- | Low -- °F
Precip. -- in
6:46 AM 7:54 PM
Waxing Gibbous, 97% visible
Pressure 30.16 in
Visibility 10.0 miles
Clouds Mostly Cloudy 3900 ft
Dew Point 57 °F
Humidity 99%
Rainfall 0.00 in
Snow Depth Not available.
UV 0 out of 12
Pollen 8.50 out of 12
Air Quality Not available.
Flu Activity Not available.
METAR KROA 280854Z 00000KT 10SM BKN039 17/15 A3019 RMK AO2 SLP213 T01670150 53000
Pressure 30.16 in
Visibility 10.0 miles
Clouds Mostly Cloudy 3900 ft
Dew Point 57 °F
Humidity 99%
Rainfall 0.00 in
Snow Depth Not available.
UV 0 out of 12
Pollen 8.50 out of 12
Air Quality Not available.
Flu Activity Not available.
METAR KROA 280854Z 00000KT 10SM BKN039 17/15 A3019 RMK AO2 SLP213 T01670150 53000

10-Day Weather Forecast

×

Almanac

Astronomy

Aug. 28, 2015 Rise Set
Actual Time
Civil Twilight
Nautical Twilight
Astronomical Twilight
Moon
Length of Visible Light
Length of Day
Tomorrow will be .
, % of the Moon is Illuminated

Today's Extremes

State Highs State Lows

Community

WunderPhotos

Upload Photos

1,850,352 photos uploaded!

WunderBlogs® & News

Nearby

Air Quality

  Air Quality AQ Index Pollutant
Not available.

Snow Depth

Station Depth Elevation

Earthquake Activity

City Distance Mag. Time & Date
Minimum magnitude displayed is 2.5.

Coastal Water Temperatures

Place Temperature

Stations

Nearby Weather Stations

Station Location Temp. Windchill Dew Point Humidity Wind Precip. Elev Updated Type